WEATHER DATA

TODAY
Time Temp. Dewp. Hum. Wind dir Wind speed Wind gust Bar. 1h Prec. 24h Prec.
00:04 18.4 10.5 60 223 1.4 2.2 1012.4 0.0000 0.0000
00:14 18.3 10.4 60 225 1.4 2.2 1012.4 0.0000 0.0000
00:25 18 10.4 61 225 1.4 2.2 1012.4 0.0000 0.0000
00:35 17.8 10.4 62 217 1.4 2.2 1012.5 0.0000 0.0000
00:45 17.5 10.4 63 221 1.4 2.2 1012.3 0.0000 0.0000
00:55 17.3 10.4 64 225 1.4 2.5 1012.3 0.0000 0.0000
01:06 17.1 10.2 64 227 1.4 2.2 1012.3 0.0000 0.0000
01:15 17 10.1 64 228 1.4 2.5 1012.1 0.0000 0.0000
01:25 17 10.1 64 225 1.4 2.2 1012 0.0000 0.0000
01:35 17 10.1 64 228 1.7 2.5 1011.9 0.0000 0.0000
01:46 16.9 10.3 65 219 1.4 2.2 1011.9 0.0000 0.0000
01:56 16.7 10.1 65 229 1.4 2.2 1011.8 0.0000 0.0000
02:05 16.7 10.1 65 222 1.4 1.9 1011.7 0.0000 0.0000
02:16 16.6 10.2 66 225 1.4 2.2 1011.5 0.0000 0.0000
02:26 16.3 10.2 67 221 1.4 2.2 1011.8 0.0000 0.0000
02:36 16.2 10.3 68 225 1.4 2.2 1011.6 0.0000 0.0000
02:46 16.1 10.2 68 219 1.4 2.2 1011.5 0.0000 0.0000
02:56 16 10.1 68 226 1.4 2.2 1011.5 0.0000 0.0000
03:06 15.9 10.2 69 222 1.4 2.2 1011.4 0.0000 0.0000
03:16 15.7 10 69 225 1.4 1.9 1011.5 0.0000 0.0000
03:27 15.6 10.2 70 225 1.4 2.2 1011.4 0.0000 0.0000
03:36 15.6 10.2 70 225 1.4 1.9 1011.2 0.0000 0.0000
03:46 15.6 10.2 70 227 1.4 1.7 1011 0.0000 0.0000
03:56 15.5 10.1 70 225 1.4 1.9 1011.2 0.0000 0.0000
04:07 15.4 10.2 71 223 1.4 1.9 1011 0.0000 0.0000
04:17 15.3 10.1 71 227 1.4 1.9 1011 0.0000 0.0000
04:26 15.2 10 71 227 1.4 1.9 1010.9 0.0000 0.0000
04:37 15.1 10.1 72 223 1.4 1.9 1010.9 0.0000 0.0000
04:47 15.1 9.9 71 223 1.4 2.2 1011.1 0.0000 0.0000
04:57 15.1 9.9 71 223 1.4 2.2 1010.8 0.0000 0.0000
05:07 15.1 9.9 71 227 1.4 2.2 1010.8 0.0000 0.0000
05:17 15.2 9.8 70 220 1.4 1.9 1011 0.0000 0.0000
05:27 15.2 9.8 70 225 1.4 1.9 1011 0.0000 0.0000
05:37 15.2 9.8 70 225 1.4 3.1 1010.9 0.0000 0.0000
05:48 15.2 9.8 70 222 1.4 1.9 1010.8 0.0000 0.0000
05:57 15.1 9.5 69 223 1.4 1.9 1010.8 0.0000 0.0000
06:07 15.2 9.6 69 227 1.4 2.2 1010.9 0.0000 0.0000
06:17 15.2 9.6 69 227 1.4 2.2 1010.9 0.0000 0.0000
06:28 15.3 9.7 69 229 1.4 2.5 1010.9 0.0000 0.0000
06:38 15.5 9.6 68 227 1.4 2.2 1011 0.0000 0.0000
06:47 15.8 9.7 67 230 1.4 2.2 1010.9 0.0000 0.0000
06:58 16.1 9.8 66 231 1.4 2.2 1010.7 0.0000 0.0000
07:08 16.5 9.9 65 227 1.4 2.2 1011 0.0000 0.0000
07:18 16.7 9.9 64 227 1.4 2.2 1010.9 0.0000 0.0000
07:28 17 9.9 63 235 1.4 2.2 1011.1 0.0000 0.0000
07:38 17.2 10.1 63 231 1.4 1.9 1011.1 0.0000 0.0000
07:48 17.7 10.3 62 231 1.4 1.9 1010.9 0.0000 0.0000
07:58 18.2 10.6 61 232 1.4 1.9 1011.2 0.0000 0.0000
08:09 18.6 10.7 60 226 1.4 2.5 1011.1 0.0000 0.0000
08:18 19.1 11.2 60 234 1.4 1.9 1011.2 0.0000 0.0000
08:28 19.8 11.3 58 229 1.4 2.2 1011.1 0.0000 0.0000
08:38 20.7 12.7 60 227 1.4 2.2 1011 0.0000 0.0000
08:49 21.5 13.2 59 226 1.4 1.9 1011 0.0000 0.0000
08:59 22 13.4 58 233 1.4 2.2 1011.2 0.0000 0.0000
09:08 22.3 13.6 58 228 1.4 2.2 1011.1 0.0000 0.0000
09:19 22.5 13.8 58 233 1.4 2.5 1011 0.0000 0.0000
09:29 22.8 13.8 57 250 1.4 2.2 1011 0.0000 0.0000
09:39 23.1 13.6 55 228 1.7 2.2 1010.8 0.0000 0.0000
09:49 23.5 13.7 54 261 1.7 2.5 1010.9 0.0000 0.0000
09:59 23.8 13.7 53 256 1.7 2.5 1010.6 0.0000 0.0000
10:09 24 13.5 52 270 1.7 3.1 1010.6 0.0000 0.0000
10:19 24.2 13.7 52 237 1.4 2.5 1010.6 0.0000 0.0000
10:29 24.4 14.2 53 238 1.4 2.5 1010.6 0.0000 0.0000
10:39 24.7 14.5 53 294 1.7 2.5 1010.3 0.0000 0.0000
10:49 25 14.8 53 248 1.7 3.1 1010.6 0.0000 0.0000
10:59 25.2 15.2 54 289 1.7 3.1 1010.5 0.0000 0.0000
11:10 25.2 14.9 53 270 1.7 3.1 1010.6 0.0000 0.0000
11:20 25.3 15.3 54 270 1.7 3.1 1010.5 0.0000 0.0000
11:29 25.5 14.9 52 258 1.7 2.5 1010.3 0.0000 0.0000
11:40 25.6 15.3 53 251 1.7 2.5 1010.4 0.0000 0.0000
11:50 25.6 15.6 54 293 1.7 3.3 1010.4 0.0000 0.0000
12:00 25.7 15.4 53 264 1.7 2.5 1010.3 0.0000 0.0000
12:09 25.7 15.7 54 249 1.7 2.2 1010.2 0.0000 0.0000
12:20 25.7 15.4 53 236 1.4 2.5 1010 0.0000 0.0000
12:30 25.8 15.5 53 246 1.7 3.1 1010 0.0000 0.0000
12:40 25.7 15.4 53 278 1.7 3.1 1010 0.0000 0.0000
12:50 25.9 15.6 53 225 1.7 3.1 1010 0.0000 0.0000
13:00 26.1 16.1 54 288 1.7 3.1 1010 0.0000 0.0000
13:10 26.3 16 53 319 1.7 3.1 1009.8 0.0000 0.0000
13:20 25.9 15.9 54 283 1.7 3.1 1009.7 0.0000 0.0000
13:31 25.8 15.5 53 213 1.7 2.2 1009.7 0.0000 0.0000
13:41 25.7 15.7 54 253 1.7 2.5 1009.7 0.0000 0.0000
13:50 25.6 15.3 53 215 1.7 2.5 1009.4 0.0000 0.0000
14:01 25.7 15.7 54 223 1.4 2.5 1009.3 0.0000 0.0000
14:11 25.7 16.3 56 221 1.7 3.1 1009.2 0.0000 0.0000
14:21 25.5 15.5 54 219 1.7 3.1 1009.2 0.0000 0.0000
14:31 25.3 15.9 56 215 1.7 2.5 1009.3 0.0000 0.0000
14:41 25.2 16.1 57 213 1.7 3.1 1008.9 0.0000 0.0000
14:51 25.1 15.7 56 194 1.9 3.6 1008.9 0.0000 0.0000
15:01 24.9 15.5 56 191 1.9 3.3 1008.8 0.0000 0.0000
15:11 24.9 15.5 56 206 1.7 3.1 1008.8 0.0000 0.0000
15:22 24.8 14.9 54 192 1.9 3.3 1008.8 0.0000 0.0000
15:31 24.5 15.2 56 193 1.9 3.3 1008.9 0.0000 0.0000
15:41 23.9 15.1 58 194 1.7 3.1 1008.8 0.0000 0.0000
15:52 23.5 15.8 62 209 1.4 2.2 1008.6 0.0000 0.0000
16:02 23.3 15.9 63 206 1.7 3.1 1008.7 0.0000 0.0000
16:11 23.1 15.9 64 201 1.7 3.1 1008.8 0.0000 0.0000
16:22 22.9 15.7 64 218 1.4 2.2 1008.9 0.0000 0.0000
16:32 22.9 15.5 63 282 1.7 3.1 1008.8 0.0000 0.0000
16:42 23.1 15.7 63 243 1.4 2.5 1008.8 0.0000 0.0000
16:52 23.1 15.7 63 325 1.7 3.1 1008.4 0.0000 0.0000

DAY STATISTIC

2020-06-03
TEMPERATURE
AVERAGE
20.4
HIGH
26.3
13:10
LOW
15.1
04:37
PRESSURE
AVERAGE
1010.6
HIGH
1012.5
00:35
LOW
1008.4
16:52
DEWPOINT
AVERAGE
12.6
HIGH
16.3
14:11
LOW
9.5
05:57
HUMIDITY
AVERAGE
61
HIGH
72
04:37
LOW
52
10:09
WIND SPEED
AVERAGE
1.5
HIGH
1.9
14:51
WIND GUST
AVERAGE
2.4
HIGH
3.6
14:51
WIND DIRECTION
PREVAILING
SW
73.3%
N
0.0
NE
0.0
E
0.0
SE
0.0
S
5.9
SW
73.3
W
16.8
NW
4.0
PRECIPITATION
RAIN HOUR
0.0
RAIN DAY
0.0
TEMPERATURE (°C)
LOW
15.1
HIGH
26.3
AVERAGE
20.4
PRESSURE (hpa)
LOW
1008.4
HIGH
1012.5
AVERAGE
1010.6
DEVICE